Terminal Aerodrome Forecast
Issued by NWS

Home | Current Version | Previous Version | Text Only | Print | Product List | Glossary On
Versions: 1 2 3 4 5 6 7 8 9 10 11 12 13 14 15 16 17
000
FTUS45 KRIW 250520
TAFWRL
TAF
KWRL 250520Z 2506/2606 VRB04KT P6SM VCSH SCT040 BKN060
     FM251600 VRB08KT P6SM -SHRA VCTS SCT040CB BKN060
     FM252300 VRB04KT P6SM VCSH SCT050 BKN080
     FM260200 36011KT P6SM VCSH BKN060=

USA.gov is the U.S. government's official web portal to all federal, state and local government web resources and services.